KFPR/FPR METAR and TAF weather

Enter ICAO airport designator
Station Type Date Time Source
KFPR METAR 2020/09/25 19:53 UTC NOAA

KFPR 251953Z 08007KT 10SM FEW023 SCT028 BKN090 27/24 A2994 RMK AO2 LTG DSNT ALQDS RAE02 TSE07B11E26 SLP139 P0000 T02670244


Station Type Date Time Source
KFPR Decoded METAR 2020/09/25 19:53 UTC NOAA

FORT PIERCE ST LUCIE, FL, United States (KFPR) 27-30N 080-23W 13M
Sep 25, 2020 - 03:53 PM EDT / 2020.09.25 1953 UTC
Wind: from the E (080 degrees) at 8 MPH (7 KT):0
Visibility: 10 mile(s):0
Sky conditions: mostly cloudy
Weather: Lightning observed
Precipitation last hour: A trace
Temperature: 80.1 F (26.7 C)
Dew Point: 75.9 F (24.4 C)
Relative Humidity: 87%
Pressure (altimeter): 29.94 in. Hg (1013 hPa)
ob: KFPR 251953Z 08007KT 10SM FEW023 SCT028 BKN090 27/24 A2994 RMK AO2 LTG DSNT ALQDS RAE02 TSE07B11E26 SLP139 P0000 T02670244
cycle: 20

Station Type Date Time Source
KFPR TAF 2020/09/25 18:36 UTC NOAA

TAF KFPR 251735Z 2518/2618 13010KT P6SM VCTS SCT030CB BKN040 BKN250
TEMPO 2518/2520 VRB15G25KT 3SM TSRA BKN030CB
FM260000 15008KT P6SM VCSH FEW030 SCT050 BKN250
FM260600 VRB02KT P6SM FEW050 BKN250
FM261600 11006KT P6SM SCT030 SCT060

Example: see airport list